Aviation Digital Data Service (ADDS)

Output produced by METARs form (0116 UTC 06 December 2019)
found at http://www.aviationweather.gov/metar/data/
 
METAR text: KSJC 060053Z 19003KT 10SM FEW009 BKN035 OVC200 16/11 A3002 RMK AO2 SLP166 T01560106
Conditions at: KSJC (SAN JOSE , CA, US) observed 0053 UTC 06 December 2019
Temperature: 15.6°C (60°F)
Dewpoint: 10.6°C (51°F) [RH = 72%]
Pressure (altimeter): 30.02 inches Hg (1016.7 mb)
[Sea-level pressure: 1016.6 mb]
Winds: from the S (190 degrees) at 3 MPH (3 knots; 1.5 m/s)
Visibility: 10 or more miles (16+ km)
Ceiling: 3500 feet AGL
Clouds: few clouds at 900 feet AGL
broken clouds at 3500 feet AGL
overcast cloud deck at 20000 feet AGL
Weather: no significant weather observed at this time

METAR text: KSJC 052353Z 21010KT 10SM FEW009 BKN035 OVC200 16/11 A3003 RMK AO2 SLP169 T01560106 10178 20133 55002
Conditions at: KSJC (SAN JOSE , CA, US) observed 2353 UTC 05 December 2019
Temperature: 15.6°C (60°F)
Dewpoint: 10.6°C (51°F) [RH = 72%]
Pressure (altimeter): 30.03 inches Hg (1017.0 mb)
[Sea-level pressure: 1016.9 mb]
Winds: from the SSW (210 degrees) at 12 MPH (10 knots; 5.1 m/s)
Visibility: 10 or more miles (16+ km)
Ceiling: 3500 feet AGL
Clouds: few clouds at 900 feet AGL
broken clouds at 3500 feet AGL
overcast cloud deck at 20000 feet AGL
Weather: no significant weather observed at this time

METAR text: KSJC 052253Z 22012KT 10SM FEW009 BKN040 OVC200 17/11 A3003 RMK AO2 SLP168 T01670106
Conditions at: KSJC (SAN JOSE , CA, US) observed 2253 UTC 05 December 2019
Temperature: 16.7°C (62°F)
Dewpoint: 10.6°C (51°F) [RH = 67%]
Pressure (altimeter): 30.03 inches Hg (1017.0 mb)
[Sea-level pressure: 1016.8 mb]
Winds: from the SW (220 degrees) at 14 MPH (12 knots; 6.2 m/s)
Visibility: 10 or more miles (16+ km)
Ceiling: 4000 feet AGL
Clouds: few clouds at 900 feet AGL
broken clouds at 4000 feet AGL
overcast cloud deck at 20000 feet AGL
Weather: no significant weather observed at this time

METAR text: KSJC 052153Z 22007KT 10SM FEW009 BKN034 OVC100 17/12 A3003 RMK AO2 SLP169 T01670117
Conditions at: KSJC (SAN JOSE , CA, US) observed 2153 UTC 05 December 2019
Temperature: 16.7°C (62°F)
Dewpoint: 11.7°C (53°F) [RH = 72%]
Pressure (altimeter): 30.03 inches Hg (1017.0 mb)
[Sea-level pressure: 1016.9 mb]
Winds: from the SW (220 degrees) at 8 MPH (7 knots; 3.6 m/s)
Visibility: 10 or more miles (16+ km)
Ceiling: 3400 feet AGL
Clouds: few clouds at 900 feet AGL
broken clouds at 3400 feet AGL
overcast cloud deck at 10000 feet AGL
Weather: no significant weather observed at this time

METAR text: KSJC 052053Z 23004KT 10SM FEW009 BKN048 OVC100 17/12 A3004 RMK AO2 SLP171 T01670117 58018
Conditions at: KSJC (SAN JOSE , CA, US) observed 2053 UTC 05 December 2019
Temperature: 16.7°C (62°F)
Dewpoint: 11.7°C (53°F) [RH = 72%]
Pressure (altimeter): 30.04 inches Hg (1017.4 mb)
[Sea-level pressure: 1017.1 mb]
Winds: from the SW (230 degrees) at 5 MPH (4 knots; 2.1 m/s)
Visibility: 10 or more miles (16+ km)
Ceiling: 4800 feet AGL
Clouds: few clouds at 900 feet AGL
broken clouds at 4800 feet AGL
overcast cloud deck at 10000 feet AGL
Weather: no significant weather observed at this time

METAR text: KSJC 051953Z 15009KT 10SM FEW001 BKN043 OVC100 17/11 A3006 RMK AO2 SLP180 T01670111
Conditions at: KSJC (SAN JOSE , CA, US) observed 1953 UTC 05 December 2019
Temperature: 16.7°C (62°F)
Dewpoint: 11.1°C (52°F) [RH = 70%]
Pressure (altimeter): 30.06 inches Hg (1018.0 mb)
[Sea-level pressure: 1018.0 mb]
Winds: from the SSE (150 degrees) at 10 MPH (9 knots; 4.6 m/s)
Visibility: 10 or more miles (16+ km)
Ceiling: 4300 feet AGL
Clouds: few clouds at 100 feet AGL
broken clouds at 4300 feet AGL
overcast cloud deck at 10000 feet AGL
Weather: no significant weather observed at this time

METAR text: KSJC 051853Z VRB03KT 10SM FEW001 SCT030 BKN100 16/12 A3009 RMK AO2 SLP187 T01560117
Conditions at: KSJC (SAN JOSE , CA, US) observed 1853 UTC 05 December 2019
Temperature: 15.6°C (60°F)
Dewpoint: 11.7°C (53°F) [RH = 78%]
Pressure (altimeter): 30.09 inches Hg (1019.0 mb)
[Sea-level pressure: 1018.7 mb]
Winds: variable direction winds at 3 MPH (3 knots; 1.5 m/s)
Visibility: 10 or more miles (16+ km)
Ceiling: 10000 feet AGL
Clouds: few clouds at 100 feet AGL
scattered clouds at 3000 feet AGL
broken clouds at 10000 feet AGL
Weather: no significant weather observed at this time

METAR text: KSJC 051753Z 21003KT 10SM FEW001 SCT030 BKN100 13/11 A3009 RMK AO2 SLP189 T01330106 10133 20078 51017
Conditions at: KSJC (SAN JOSE , CA, US) observed 1753 UTC 05 December 2019
Temperature: 13.3°C (56°F)
Dewpoint: 10.6°C (51°F) [RH = 84%]
Pressure (altimeter): 30.09 inches Hg (1019.0 mb)
[Sea-level pressure: 1018.9 mb]
Winds: from the SSW (210 degrees) at 3 MPH (3 knots; 1.5 m/s)
Visibility: 10 or more miles (16+ km)
Ceiling: 10000 feet AGL
Clouds: few clouds at 100 feet AGL
scattered clouds at 3000 feet AGL
broken clouds at 10000 feet AGL
Weather: no significant weather observed at this time

METAR text: KSJC 051653Z 00000KT 10SM FEW001 SCT032 BKN100 12/11 A3008 RMK AO2 SLP186 T01220106
Conditions at: KSJC (SAN JOSE , CA, US) observed 1653 UTC 05 December 2019
Temperature: 12.2°C (54°F)
Dewpoint: 10.6°C (51°F) [RH = 90%]
Pressure (altimeter): 30.08 inches Hg (1018.7 mb)
[Sea-level pressure: 1018.6 mb]
Winds: calm
Visibility: 10 or more miles (16+ km)
Ceiling: 10000 feet AGL
Clouds: few clouds at 100 feet AGL
scattered clouds at 3200 feet AGL
broken clouds at 10000 feet AGL
Weather: no significant weather observed at this time

METAR text: KSJC 051553Z 00000KT 10SM FEW001 BKN032 BKN100 10/09 A3007 RMK AO2 SLP181 T01000094
Conditions at: KSJC (SAN JOSE , CA, US) observed 1553 UTC 05 December 2019
Temperature: 10.0°C (50°F)
Dewpoint: 9.4°C (49°F) [RH = 96%]
Pressure (altimeter): 30.07 inches Hg (1018.4 mb)
[Sea-level pressure: 1018.1 mb]
Winds: calm
Visibility: 10 or more miles (16+ km)
Ceiling: 3200 feet AGL
Clouds: few clouds at 100 feet AGL
broken clouds at 3200 feet AGL
broken clouds at 10000 feet AGL
Weather: no significant weather observed at this time

METAR text: KSJC 051453Z 00000KT 10SM FEW001 FEW040 SCT100 08/08 A3004 RMK AO2 SLP172 T00830078 53014
Conditions at: KSJC (SAN JOSE , CA, US) observed 1453 UTC 05 December 2019
Temperature: 8.3°C (47°F)
Dewpoint: 7.8°C (46°F) [RH = 97%]
Pressure (altimeter): 30.04 inches Hg (1017.4 mb)
[Sea-level pressure: 1017.2 mb]
Winds: calm
Visibility: 10 or more miles (16+ km)
Ceiling: at least 12,000 feet AGL
Clouds: few clouds at 100 feet AGL
few clouds at 4000 feet AGL
scattered clouds at 10000 feet AGL
Weather: no significant weather observed at this time

METAR text: KSJC 051353Z 00000KT 10SM BCFG FEW001 09/08 A3002 RMK AO2 SLP166 VIS W 1/2 T00890078
Conditions at: KSJC (SAN JOSE , CA, US) observed 1353 UTC 05 December 2019
Temperature: 8.9°C (48°F)
Dewpoint: 7.8°C (46°F) [RH = 93%]
Pressure (altimeter): 30.02 inches Hg (1016.7 mb)
[Sea-level pressure: 1016.6 mb]
Winds: calm
Visibility: 10 or more miles (16+ km)
Ceiling: at least 12,000 feet AGL
Clouds: few clouds at 100 feet AGL
Weather: BCFG  (patches of fog)

METAR text: KSJC 051331Z 00000KT 8SM BCFG FEW001 09/08 A3002 RMK AO2 VIS W 1/4 T00890078
Conditions at: KSJC (SAN JOSE , CA, US) observed 1331 UTC 05 December 2019
Temperature: 8.9°C (48°F)
Dewpoint: 7.8°C (46°F) [RH = 93%]
Pressure (altimeter): 30.02 inches Hg (1016.7 mb)
Winds: calm
Visibility: 8 miles (13 km)
Ceiling: at least 12,000 feet AGL
Clouds: few clouds at 100 feet AGL
Weather: BCFG  (patches of fog)

METAR text: KSJC 051315Z AUTO 00000KT 1/2SM R30L/3500VP6000FT FG VV003 09/08 A3002 RMK AO2 T00890083
Conditions at: KSJC (SAN JOSE , CA, US) observed 1315 UTC 05 December 2019
Temperature: 8.9°C (48°F)
Dewpoint: 8.3°C (47°F) [RH = 96%]
Pressure (altimeter): 30.02 inches Hg (1016.7 mb)
Winds: calm
Visibility: 0.50 miles (0.80 km)
Ceiling: indefinite ceiling with vertical visibility of 300 feet AGL
Clouds: obscured sky
Weather: FG  (fog)

METAR text: KSJC 051301Z AUTO 00000KT 1/4SM R30L/2800VP6000FT FG VV003 08/08 A3001 RMK AO2 T00830078
Conditions at: KSJC (SAN JOSE , CA, US) observed 1301 UTC 05 December 2019
Temperature: 8.3°C (47°F)
Dewpoint: 7.8°C (46°F) [RH = 97%]
Pressure (altimeter): 30.01 inches Hg (1016.3 mb)
Winds: calm
Visibility: 0.25 miles (0.40 km)
Ceiling: indefinite ceiling with vertical visibility of 300 feet AGL
Clouds: obscured sky
Weather: FG  (fog)

METAR text: KSJC 051253Z AUTO 00000KT 1/2SM R30L/3000VP6000FT FG VV002 09/08 A3001 RMK AO2 SLP162 T00890083
Conditions at: KSJC (SAN JOSE , CA, US) observed 1253 UTC 05 December 2019
Temperature: 8.9°C (48°F)
Dewpoint: 8.3°C (47°F) [RH = 96%]
Pressure (altimeter): 30.01 inches Hg (1016.3 mb)
[Sea-level pressure: 1016.2 mb]
Winds: calm
Visibility: 0.50 miles (0.80 km)
Ceiling: indefinite ceiling with vertical visibility of 200 feet AGL
Clouds: obscured sky
Weather: FG  (fog)

METAR text: KSJC 051243Z AUTO 00000KT 1SM R30L/2600VP6000FT BR VV002 09/08 A3001 RMK AO2 T00940083
Conditions at: KSJC (SAN JOSE , CA, US) observed 1243 UTC 05 December 2019
Temperature: 9.4°C (49°F)
Dewpoint: 8.3°C (47°F) [RH = 93%]
Pressure (altimeter): 30.01 inches Hg (1016.3 mb)
Winds: calm
Visibility: 1.00 miles (1.61 km)
Ceiling: indefinite ceiling with vertical visibility of 200 feet AGL
Clouds: obscured sky
Weather: BR  (mist)

METAR text: KSJC 051236Z AUTO 00000KT 1/4SM R30L/2600VP6000FT FG VV002 09/08 A3001 RMK AO2 T00940083
Conditions at: KSJC (SAN JOSE , CA, US) observed 1236 UTC 05 December 2019
Temperature: 9.4°C (49°F)
Dewpoint: 8.3°C (47°F) [RH = 93%]
Pressure (altimeter): 30.01 inches Hg (1016.3 mb)
Winds: calm
Visibility: 0.25 miles (0.40 km)
Ceiling: indefinite ceiling with vertical visibility of 200 feet AGL
Clouds: obscured sky
Weather: FG  (fog)

METAR text: KSJC 051229Z AUTO 00000KT 1/2SM R30L/2600VP6000FT FG VV002 09/08 A3002 RMK AO2 T00890083
Conditions at: KSJC (SAN JOSE , CA, US) observed 1229 UTC 05 December 2019
Temperature: 8.9°C (48°F)
Dewpoint: 8.3°C (47°F) [RH = 96%]
Pressure (altimeter): 30.02 inches Hg (1016.7 mb)
Winds: calm
Visibility: 0.50 miles (0.80 km)
Ceiling: indefinite ceiling with vertical visibility of 200 feet AGL
Clouds: obscured sky
Weather: FG  (fog)

METAR text: KSJC 051153Z AUTO 00000KT 1/4SM R30L/2000V3500FT FG VV001 09/08 A3000 RMK AO2 SLP158 70036 T00890083 10133 20089 55001
Conditions at: KSJC (SAN JOSE , CA, US) observed 1153 UTC 05 December 2019
Temperature: 8.9°C (48°F)
Dewpoint: 8.3°C (47°F) [RH = 96%]
Pressure (altimeter): 30.00 inches Hg (1016.0 mb)
[Sea-level pressure: 1015.8 mb]
Winds: calm
Visibility: 0.25 miles (0.40 km)
Ceiling: indefinite ceiling with vertical visibility of 100 feet AGL
Clouds: obscured sky
Weather: FG  (fog)

METAR text: KSJC 051148Z AUTO 00000KT 1/2SM R30L/2000V3500FT FG VV001 09/09 A3000 RMK AO2
Conditions at: KSJC (SAN JOSE , CA, US) observed 1148 UTC 05 December 2019
Temperature: 9.0°C (48°F)
Dewpoint: 9.0°C (48°F) [RH = 100%]
Pressure (altimeter): 30.00 inches Hg (1016.0 mb)
Winds: calm
Visibility: 0.50 miles (0.80 km)
Ceiling: indefinite ceiling with vertical visibility of 100 feet AGL
Clouds: obscured sky
Weather: FG  (fog)

METAR text: KSJC 051136Z AUTO 00000KT 1/4SM R30L/1000V5000FT FG VV001 09/09 A3000 RMK AO2 T00940089
Conditions at: KSJC (SAN JOSE , CA, US) observed 1136 UTC 05 December 2019
Temperature: 9.4°C (49°F)
Dewpoint: 8.9°C (48°F) [RH = 97%]
Pressure (altimeter): 30.00 inches Hg (1016.0 mb)
Winds: calm
Visibility: 0.25 miles (0.40 km)
Ceiling: indefinite ceiling with vertical visibility of 100 feet AGL
Clouds: obscured sky
Weather: FG  (fog)

METAR text: KSJC 051124Z AUTO 00000KT M1/4SM R30L/0800V1000FT FG VV001 09/09 A2999 RMK AO2 T00940089
Conditions at: KSJC (SAN JOSE , CA, US) observed 1124 UTC 05 December 2019
Temperature: 9.4°C (49°F)
Dewpoint: 8.9°C (48°F) [RH = 97%]
Pressure (altimeter): 29.99 inches Hg (1015.7 mb)
Winds: calm
Visibility: 0.25 miles (0.40 km)
Ceiling: indefinite ceiling with vertical visibility of 100 feet AGL
Clouds: obscured sky
Weather: FG  (fog)

METAR text: KSJC 051116Z AUTO 00000KT 1/4SM R30L/1000V2600FT FG VV001 09/09 A3000 RMK AO2 T00940089
Conditions at: KSJC (SAN JOSE , CA, US) observed 1116 UTC 05 December 2019
Temperature: 9.4°C (49°F)
Dewpoint: 8.9°C (48°F) [RH = 97%]
Pressure (altimeter): 30.00 inches Hg (1016.0 mb)
Winds: calm
Visibility: 0.25 miles (0.40 km)
Ceiling: indefinite ceiling with vertical visibility of 100 feet AGL
Clouds: obscured sky
Weather: FG  (fog)

METAR text: KSJC 051102Z AUTO 00000KT 1/2SM R30L/2800VP6000FT FG VV003 10/09 A3000 RMK AO2 T01000094
Conditions at: KSJC (SAN JOSE , CA, US) observed 1102 UTC 05 December 2019
Temperature: 10.0°C (50°F)
Dewpoint: 9.4°C (49°F) [RH = 96%]
Pressure (altimeter): 30.00 inches Hg (1016.0 mb)
Winds: calm
Visibility: 0.50 miles (0.80 km)
Ceiling: indefinite ceiling with vertical visibility of 300 feet AGL
Clouds: obscured sky
Weather: FG  (fog)

METAR text: KSJC 051053Z AUTO 00000KT 1/2SM R30L/4000VP6000FT FG FEW070 10/09 A3000 RMK AO2 SLP159 T01000089
Conditions at: KSJC (SAN JOSE , CA, US) observed 1053 UTC 05 December 2019
Temperature: 10.0°C (50°F)
Dewpoint: 8.9°C (48°F) [RH = 93%]
Pressure (altimeter): 30.00 inches Hg (1016.0 mb)
[Sea-level pressure: 1015.9 mb]
Winds: calm
Visibility: 0.50 miles (0.80 km)
Ceiling: at least 12,000 feet AGL
Clouds: few clouds at 7000 feet AGL
Weather: FG  (fog)

METAR text: KSJC 051043Z AUTO 00000KT 1 3/4SM BR FEW070 10/09 A3000 RMK AO2 VIS 1/2V5 T01000094
Conditions at: KSJC (SAN JOSE , CA, US) observed 1043 UTC 05 December 2019
Temperature: 10.0°C (50°F)
Dewpoint: 9.4°C (49°F) [RH = 96%]
Pressure (altimeter): 30.00 inches Hg (1016.0 mb)
Winds: calm
Visibility: 1.75 miles (2.82 km)
Ceiling: at least 12,000 feet AGL
Clouds: few clouds at 7000 feet AGL
Weather: BR  (mist)

METAR text: KSJC 051034Z AUTO 00000KT 3SM BR FEW075 10/09 A3000 RMK AO2 T01000094
Conditions at: KSJC (SAN JOSE , CA, US) observed 1034 UTC 05 December 2019
Temperature: 10.0°C (50°F)
Dewpoint: 9.4°C (49°F) [RH = 96%]
Pressure (altimeter): 30.00 inches Hg (1016.0 mb)
Winds: calm
Visibility: 3 miles ( 5 km)
Ceiling: at least 12,000 feet AGL
Clouds: few clouds at 7500 feet AGL
Weather: BR  (mist)

METAR text: KSJC 051027Z AUTO 00000KT 2 1/2SM BR CLR 11/10 A3000 RMK AO2 T01060100
Conditions at: KSJC (SAN JOSE , CA, US) observed 1027 UTC 05 December 2019
Temperature: 10.6°C (51°F)
Dewpoint: 10.0°C (50°F) [RH = 96%]
Pressure (altimeter): 30.00 inches Hg (1016.0 mb)
Winds: calm
Visibility: 2.50 miles (4.02 km)
Ceiling: at least 12,000 feet AGL
Clouds: sky clear below 12,000 feet AGL
Weather: BR  (mist)

METAR text: KSJC 051014Z AUTO 00000KT 1/2SM R30L/3000VP6000FT FG CLR 11/11 A2999 RMK AO2 T01060106
Conditions at: KSJC (SAN JOSE , CA, US) observed 1014 UTC 05 December 2019
Temperature: 10.6°C (51°F)
Dewpoint: 10.6°C (51°F) [RH = 100%]
Pressure (altimeter): 29.99 inches Hg (1015.7 mb)
Winds: calm
Visibility: 0.50 miles (0.80 km)
Ceiling: at least 12,000 feet AGL
Clouds: sky clear below 12,000 feet AGL
Weather: FG  (fog)

METAR text: KSJC 051007Z AUTO 00000KT 1/4SM R30L/1800VP6000FT FG VV002 11/10 A2999 RMK AO2 VIS 1/4V1 3/4 T01060100
Conditions at: KSJC (SAN JOSE , CA, US) observed 1007 UTC 05 December 2019
Temperature: 10.6°C (51°F)
Dewpoint: 10.0°C (50°F) [RH = 96%]
Pressure (altimeter): 29.99 inches Hg (1015.7 mb)
Winds: calm
Visibility: 0.25 miles (0.40 km)
Ceiling: indefinite ceiling with vertical visibility of 200 feet AGL
Clouds: obscured sky
Weather: FG  (fog)

METAR text: KSJC 051001Z AUTO 00000KT 1 3/4SM BR CLR 11/11 A2999 RMK AO2 T01060106
Conditions at: KSJC (SAN JOSE , CA, US) observed 1001 UTC 05 December 2019
Temperature: 10.6°C (51°F)
Dewpoint: 10.6°C (51°F) [RH = 100%]
Pressure (altimeter): 29.99 inches Hg (1015.7 mb)
Winds: calm
Visibility: 1.75 miles (2.82 km)
Ceiling: at least 12,000 feet AGL
Clouds: sky clear below 12,000 feet AGL
Weather: BR  (mist)

METAR text: KSJC 050953Z AUTO 00000KT 5SM BR CLR 11/11 A2998 RMK AO2 SLP153 T01060106
Conditions at: KSJC (SAN JOSE , CA, US) observed 0953 UTC 05 December 2019
Temperature: 10.6°C (51°F)
Dewpoint: 10.6°C (51°F) [RH = 100%]
Pressure (altimeter): 29.98 inches Hg (1015.3 mb)
[Sea-level pressure: 1015.3 mb]
Winds: calm
Visibility: 5 miles ( 8 km)
Ceiling: at least 12,000 feet AGL
Clouds: sky clear below 12,000 feet AGL
Weather: BR  (mist)

METAR text: KSJC 050853Z AUTO 08004KT 6SM BR CLR 12/11 A2999 RMK AO2 SLP154 T01170106 51013
Conditions at: KSJC (SAN JOSE , CA, US) observed 0853 UTC 05 December 2019
Temperature: 11.7°C (53°F)
Dewpoint: 10.6°C (51°F) [RH = 93%]
Pressure (altimeter): 29.99 inches Hg (1015.7 mb)
[Sea-level pressure: 1015.4 mb]
Winds: from the E (80 degrees) at 5 MPH (4 knots; 2.1 m/s)
Visibility: 6 miles (10 km)
Ceiling: at least 12,000 feet AGL
Clouds: sky clear below 12,000 feet AGL
Weather: BR  (mist)

METAR text: KSJC 050753Z 24003KT 7SM FEW001 FEW015 SCT045 12/12 A2998 RMK AO2 SLP151 LAST T01220117 401500117
Conditions at: KSJC (SAN JOSE , CA, US) observed 0753 UTC 05 December 2019
Temperature: 12.2°C (54°F)
Dewpoint: 11.7°C (53°F) [RH = 97%]
Pressure (altimeter): 29.98 inches Hg (1015.3 mb)
[Sea-level pressure: 1015.1 mb]
Winds: from the WSW (240 degrees) at 3 MPH (3 knots; 1.5 m/s)
Visibility: 7 miles (11 km)
Ceiling: at least 12,000 feet AGL
Clouds: few clouds at 100 feet AGL
few clouds at 1500 feet AGL
scattered clouds at 4500 feet AGL
Weather: no significant weather observed at this time

METAR text: KSJC 050653Z 09004KT 6SM BR FEW001 SCT035 BKN045 13/12 A2997 RMK AO2 SLP147 T01330122
Conditions at: KSJC (SAN JOSE , CA, US) observed 0653 UTC 05 December 2019
Temperature: 13.3°C (56°F)
Dewpoint: 12.2°C (54°F) [RH = 93%]
Pressure (altimeter): 29.97 inches Hg (1015.0 mb)
[Sea-level pressure: 1014.7 mb]
Winds: from the E (90 degrees) at 5 MPH (4 knots; 2.1 m/s)
Visibility: 6 miles (10 km)
Ceiling: 4500 feet AGL
Clouds: few clouds at 100 feet AGL
scattered clouds at 3500 feet AGL
broken clouds at 4500 feet AGL
Weather: BR  (mist)

METAR text: KSJC 050640Z 09003KT 6SM BR FEW001 SCT006 BKN028 13/12 A2997 RMK AO2 T01330122
Conditions at: KSJC (SAN JOSE , CA, US) observed 0640 UTC 05 December 2019
Temperature: 13.3°C (56°F)
Dewpoint: 12.2°C (54°F) [RH = 93%]
Pressure (altimeter): 29.97 inches Hg (1015.0 mb)
Winds: from the E (90 degrees) at 3 MPH (3 knots; 1.5 m/s)
Visibility: 6 miles (10 km)
Ceiling: 2800 feet AGL
Clouds: few clouds at 100 feet AGL
scattered clouds at 600 feet AGL
broken clouds at 2800 feet AGL
Weather: BR  (mist)

METAR text: KSJC 050553Z 12003KT 5SM BR FEW001 BKN006 OVC040 13/12 A2995 RMK AO2 SLP141 60016 T01330122 10144 20128 51018
Conditions at: KSJC (SAN JOSE , CA, US) observed 0553 UTC 05 December 2019
Temperature: 13.3°C (56°F)
Dewpoint: 12.2°C (54°F) [RH = 93%]
Pressure (altimeter): 29.95 inches Hg (1014.3 mb)
[Sea-level pressure: 1014.1 mb]
Winds: from the ESE (120 degrees) at 3 MPH (3 knots; 1.5 m/s)
Visibility: 5 miles ( 8 km)
Ceiling: 600 feet AGL
Clouds: few clouds at 100 feet AGL
broken clouds at 600 feet AGL
overcast cloud deck at 4000 feet AGL
Weather: BR  (mist)

METAR text: KSJC 050510Z 00000KT 6SM BR FEW001 BKN006 OVC030 13/12 A2995 RMK AO2 T01280122
Conditions at: KSJC (SAN JOSE , CA, US) observed 0510 UTC 05 December 2019
Temperature: 12.8°C (55°F)
Dewpoint: 12.2°C (54°F) [RH = 96%]
Pressure (altimeter): 29.95 inches Hg (1014.3 mb)
Winds: calm
Visibility: 6 miles (10 km)
Ceiling: 600 feet AGL
Clouds: few clouds at 100 feet AGL
broken clouds at 600 feet AGL
overcast cloud deck at 3000 feet AGL
Weather: BR  (mist)

METAR text: KSJC 050453Z 00000KT 5SM BR FEW001 BKN011 OVC030 13/13 A2994 RMK AO2 RAE34 SLP138 P0002 T01280128
Conditions at: KSJC (SAN JOSE , CA, US) observed 0453 UTC 05 December 2019
Temperature: 12.8°C (55°F)
Dewpoint: 12.8°C (55°F) [RH = 100%]
Pressure (altimeter): 29.94 inches Hg (1014.0 mb)
[Sea-level pressure: 1013.8 mb]
Winds: calm
Visibility: 5 miles ( 8 km)
Ceiling: 1100 feet AGL
Clouds: few clouds at 100 feet AGL
broken clouds at 1100 feet AGL
overcast cloud deck at 3000 feet AGL
Weather: BR  (mist)

METAR text: KSJC 050419Z 00000KT 4SM -RA BR FEW001 BKN025 OVC040 13/12 A2993 RMK AO2 P0002 T01280122
Conditions at: KSJC (SAN JOSE , CA, US) observed 0419 UTC 05 December 2019
Temperature: 12.8°C (55°F)
Dewpoint: 12.2°C (54°F) [RH = 96%]
Pressure (altimeter): 29.93 inches Hg (1013.6 mb)
Winds: calm
Visibility: 4 miles ( 6 km)
Ceiling: 2500 feet AGL
Clouds: few clouds at 100 feet AGL
broken clouds at 2500 feet AGL
overcast cloud deck at 4000 feet AGL
Weather: -RA BR  (light rain, mist)

METAR text: KSJC 050353Z 00000KT 2 1/2SM -RA BR FEW001 BKN017 OVC035 13/12 A2992 RMK AO2 SLP131 P0005 T01280122
Conditions at: KSJC (SAN JOSE , CA, US) observed 0353 UTC 05 December 2019
Temperature: 12.8°C (55°F)
Dewpoint: 12.2°C (54°F) [RH = 96%]
Pressure (altimeter): 29.92 inches Hg (1013.3 mb)
[Sea-level pressure: 1013.1 mb]
Winds: calm
Visibility: 2.50 miles (4.02 km)
Ceiling: 1700 feet AGL
Clouds: few clouds at 100 feet AGL
broken clouds at 1700 feet AGL
overcast cloud deck at 3500 feet AGL
Weather: -RA BR  (light rain, mist)

METAR text: KSJC 050319Z 29003KT 3SM -RA BR FEW001 BKN017 OVC035 13/12 A2991 RMK AO2 P0004 T01280122
Conditions at: KSJC (SAN JOSE , CA, US) observed 0319 UTC 05 December 2019
Temperature: 12.8°C (55°F)
Dewpoint: 12.2°C (54°F) [RH = 96%]
Pressure (altimeter): 29.91 inches Hg (1013.0 mb)
Winds: from the WNW (290 degrees) at 3 MPH (3 knots; 1.5 m/s)
Visibility: 3 miles ( 5 km)
Ceiling: 1700 feet AGL
Clouds: few clouds at 100 feet AGL
broken clouds at 1700 feet AGL
overcast cloud deck at 3500 feet AGL
Weather: -RA BR  (light rain, mist)

METAR text: KSJC 050300Z 30003KT 2 1/2SM RA BR FEW001 BKN015 OVC035 13/12 A2990 RMK AO2 P0001 T01280117
Conditions at: KSJC (SAN JOSE , CA, US) observed 0300 UTC 05 December 2019
Temperature: 12.8°C (55°F)
Dewpoint: 11.7°C (53°F) [RH = 93%]
Pressure (altimeter): 29.90 inches Hg (1012.6 mb)
Winds: from the WNW (300 degrees) at 3 MPH (3 knots; 1.5 m/s)
Visibility: 2.50 miles (4.02 km)
Ceiling: 1500 feet AGL
Clouds: few clouds at 100 feet AGL
broken clouds at 1500 feet AGL
overcast cloud deck at 3500 feet AGL
Weather: RA BR  (moderate rain, mist)

METAR text: KSJC 050253Z 31003KT 3SM RA BR FEW001 BKN017 OVC038 13/12 A2990 RMK AO2 SLP123 P0009 60009 T01280117 51021
Conditions at: KSJC (SAN JOSE , CA, US) observed 0253 UTC 05 December 2019
Temperature: 12.8°C (55°F)
Dewpoint: 11.7°C (53°F) [RH = 93%]
Pressure (altimeter): 29.90 inches Hg (1012.6 mb)
[Sea-level pressure: 1012.3 mb]
Winds: from the NW (310 degrees) at 3 MPH (3 knots; 1.5 m/s)
Visibility: 3 miles ( 5 km)
Ceiling: 1700 feet AGL
Clouds: few clouds at 100 feet AGL
broken clouds at 1700 feet AGL
overcast cloud deck at 3800 feet AGL
Weather: RA BR  (moderate rain, mist)

METAR text: KSJC 050209Z 25003KT 4SM RA BR FEW001 BKN026 OVC050 13/12 A2989 RMK AO2 P0003 T01330117
Conditions at: KSJC (SAN JOSE , CA, US) observed 0209 UTC 05 December 2019
Temperature: 13.3°C (56°F)
Dewpoint: 11.7°C (53°F) [RH = 90%]
Pressure (altimeter): 29.89 inches Hg (1012.3 mb)
Winds: from the WSW (250 degrees) at 3 MPH (3 knots; 1.5 m/s)
Visibility: 4 miles ( 6 km)
Ceiling: 2600 feet AGL
Clouds: few clouds at 100 feet AGL
broken clouds at 2600 feet AGL
overcast cloud deck at 5000 feet AGL
Weather: RA BR  (moderate rain, mist)

METAR text: KSJC 050153Z 28003KT 5SM -RA BR FEW002 BKN038 OVC100 13/11 A2988 RMK AO2 RAB36 SLP117 P0000 T01330111
Conditions at: KSJC (SAN JOSE , CA, US) observed 0153 UTC 05 December 2019
Temperature: 13.3°C (56°F)
Dewpoint: 11.1°C (52°F) [RH = 87%]
Pressure (altimeter): 29.88 inches Hg (1011.9 mb)
[Sea-level pressure: 1011.7 mb]
Winds: from the W (280 degrees) at 3 MPH (3 knots; 1.5 m/s)
Visibility: 5 miles ( 8 km)
Ceiling: 3800 feet AGL
Clouds: few clouds at 200 feet AGL
broken clouds at 3800 feet AGL
overcast cloud deck at 10000 feet AGL
Weather: -RA BR  (light rain, mist)

METAR text: KSJC 050053Z 28004KT 10SM FEW003 BKN055 OVC090 14/12 A2985 RMK AO2 SLP109 T01390117
Conditions at: KSJC (SAN JOSE , CA, US) observed 0053 UTC 05 December 2019
Temperature: 13.9°C (57°F)
Dewpoint: 11.7°C (53°F) [RH = 87%]
Pressure (altimeter): 29.85 inches Hg (1010.9 mb)
[Sea-level pressure: 1010.9 mb]
Winds: from the W (280 degrees) at 5 MPH (4 knots; 2.1 m/s)
Visibility: 10 or more miles (16+ km)
Ceiling: 5500 feet AGL
Clouds: few clouds at 300 feet AGL
broken clouds at 5500 feet AGL
overcast cloud deck at 9000 feet AGL
Weather: no significant weather observed at this time

METAR text: KSJC 042353Z 31003KT 10SM FEW005 FEW011 BKN050 14/12 A2983 RMK AO2 SLP102 60002 T01440117 10150 20128 53007
Conditions at: KSJC (SAN JOSE , CA, US) observed 2353 UTC 04 December 2019
Temperature: 14.4°C (58°F)
Dewpoint: 11.7°C (53°F) [RH = 84%]
Pressure (altimeter): 29.83 inches Hg (1010.2 mb)
[Sea-level pressure: 1010.2 mb]
Winds: from the NW (310 degrees) at 3 MPH (3 knots; 1.5 m/s)
Visibility: 10 or more miles (16+ km)
Ceiling: 5000 feet AGL
Clouds: few clouds at 500 feet AGL
few clouds at 1100 feet AGL
broken clouds at 5000 feet AGL
Weather: no significant weather observed at this time

METAR text: KSJC 042253Z 32003KT 10SM FEW004 FEW014 BKN050 14/12 A2982 RMK AO2 SLP096 T01440117
Conditions at: KSJC (SAN JOSE , CA, US) observed 2253 UTC 04 December 2019
Temperature: 14.4°C (58°F)
Dewpoint: 11.7°C (53°F) [RH = 84%]
Pressure (altimeter): 29.82 inches Hg (1009.9 mb)
[Sea-level pressure: 1009.6 mb]
Winds: from the NW (320 degrees) at 3 MPH (3 knots; 1.5 m/s)
Visibility: 10 or more miles (16+ km)
Ceiling: 5000 feet AGL
Clouds: few clouds at 400 feet AGL
few clouds at 1400 feet AGL
broken clouds at 5000 feet AGL
Weather: no significant weather observed at this time

METAR text: KSJC 042232Z 34004KT 10SM FEW006 SCT018 BKN050 14/12 A2981 RMK AO2 T01440117
Conditions at: KSJC (SAN JOSE , CA, US) observed 2232 UTC 04 December 2019
Temperature: 14.4°C (58°F)
Dewpoint: 11.7°C (53°F) [RH = 84%]
Pressure (altimeter): 29.81 inches Hg (1009.6 mb)
Winds: from the NNW (340 degrees) at 5 MPH (4 knots; 2.1 m/s)
Visibility: 10 or more miles (16+ km)
Ceiling: 5000 feet AGL
Clouds: few clouds at 600 feet AGL
scattered clouds at 1800 feet AGL
broken clouds at 5000 feet AGL
Weather: no significant weather observed at this time

METAR text: KSJC 042153Z 27005KT 10SM FEW006 SCT014 BKN021 15/13 A2981 RMK AO2 SLP094 T01500128
Conditions at: KSJC (SAN JOSE , CA, US) observed 2153 UTC 04 December 2019
Temperature: 15.0°C (59°F)
Dewpoint: 12.8°C (55°F) [RH = 87%]
Pressure (altimeter): 29.81 inches Hg (1009.6 mb)
[Sea-level pressure: 1009.4 mb]
Winds: from the W (270 degrees) at 6 MPH (5 knots; 2.6 m/s)
Visibility: 10 or more miles (16+ km)
Ceiling: 2100 feet AGL
Clouds: few clouds at 600 feet AGL
scattered clouds at 1400 feet AGL
broken clouds at 2100 feet AGL
Weather: no significant weather observed at this time

METAR text: KSJC 042104Z 30004KT 10SM FEW001 SCT014 BKN070 14/12 A2981 RMK AO2 T01390122
Conditions at: KSJC (SAN JOSE , CA, US) observed 2104 UTC 04 December 2019
Temperature: 13.9°C (57°F)
Dewpoint: 12.2°C (54°F) [RH = 89%]
Pressure (altimeter): 29.81 inches Hg (1009.6 mb)
Winds: from the WNW (300 degrees) at 5 MPH (4 knots; 2.1 m/s)
Visibility: 10 or more miles (16+ km)
Ceiling: 7000 feet AGL
Clouds: few clouds at 100 feet AGL
scattered clouds at 1400 feet AGL
broken clouds at 7000 feet AGL
Weather: no significant weather observed at this time

METAR text: KSJC 042053Z 26004KT 10SM FEW001 BKN014 OVC065 14/12 A2981 RMK AO2 RAE29 SLP094 P0002 60002 T01390122 58015
Conditions at: KSJC (SAN JOSE , CA, US) observed 2053 UTC 04 December 2019
Temperature: 13.9°C (57°F)
Dewpoint: 12.2°C (54°F) [RH = 89%]
Pressure (altimeter): 29.81 inches Hg (1009.6 mb)
[Sea-level pressure: 1009.4 mb]
Winds: from the W (260 degrees) at 5 MPH (4 knots; 2.1 m/s)
Visibility: 10 or more miles (16+ km)
Ceiling: 1400 feet AGL
Clouds: few clouds at 100 feet AGL
broken clouds at 1400 feet AGL
overcast cloud deck at 6500 feet AGL
Weather: no significant weather observed at this time

METAR text: KSJC 042043Z 24004KT 8SM FEW001 BKN014 OVC065 14/12 A2982 RMK AO2 RAE29 P0002 T01390122
Conditions at: KSJC (SAN JOSE , CA, US) observed 2043 UTC 04 December 2019
Temperature: 13.9°C (57°F)
Dewpoint: 12.2°C (54°F) [RH = 89%]
Pressure (altimeter): 29.82 inches Hg (1009.9 mb)
Winds: from the WSW (240 degrees) at 5 MPH (4 knots; 2.1 m/s)
Visibility: 8 miles (13 km)
Ceiling: 1400 feet AGL
Clouds: few clouds at 100 feet AGL
broken clouds at 1400 feet AGL
overcast cloud deck at 6500 feet AGL
Weather: no significant weather observed at this time

METAR text: KSJC 042015Z 35003KT 8SM -RA FEW001 SCT012 BKN055 14/12 A2982 RMK AO2 P0002 T01390122
Conditions at: KSJC (SAN JOSE , CA, US) observed 2015 UTC 04 December 2019
Temperature: 13.9°C (57°F)
Dewpoint: 12.2°C (54°F) [RH = 89%]
Pressure (altimeter): 29.82 inches Hg (1009.9 mb)
Winds: from the N (350 degrees) at 3 MPH (3 knots; 1.5 m/s)
Visibility: 8 miles (13 km)
Ceiling: 5500 feet AGL
Clouds: few clouds at 100 feet AGL
scattered clouds at 1200 feet AGL
broken clouds at 5500 feet AGL
Weather: -RA  (light rain)

METAR text: KSJC 041953Z 24003KT 8SM -RA FEW001 BKN010 OVC075 13/12 A2983 RMK AO2 RAB26 SLP102 P0000 T01330117
Conditions at: KSJC (SAN JOSE , CA, US) observed 1953 UTC 04 December 2019
Temperature: 13.3°C (56°F)
Dewpoint: 11.7°C (53°F) [RH = 90%]
Pressure (altimeter): 29.83 inches Hg (1010.2 mb)
[Sea-level pressure: 1010.2 mb]
Winds: from the WSW (240 degrees) at 3 MPH (3 knots; 1.5 m/s)
Visibility: 8 miles (13 km)
Ceiling: 1000 feet AGL
Clouds: few clouds at 100 feet AGL
broken clouds at 1000 feet AGL
overcast cloud deck at 7500 feet AGL
Weather: -RA  (light rain)

METAR text: KSJC 041917Z 00000KT 10SM FEW001 BKN010 OVC075 14/12 A2984 RMK AO2 T01390122
Conditions at: KSJC (SAN JOSE , CA, US) observed 1917 UTC 04 December 2019
Temperature: 13.9°C (57°F)
Dewpoint: 12.2°C (54°F) [RH = 89%]
Pressure (altimeter): 29.84 inches Hg (1010.6 mb)
Winds: calm
Visibility: 10 or more miles (16+ km)
Ceiling: 1000 feet AGL
Clouds: few clouds at 100 feet AGL
broken clouds at 1000 feet AGL
overcast cloud deck at 7500 feet AGL
Weather: no significant weather observed at this time

METAR text: KSJC 041853Z 00000KT 10SM FEW001 SCT013 OVC075 13/12 A2986 RMK AO2 SLP109 T01330117
Conditions at: KSJC (SAN JOSE , CA, US) observed 1853 UTC 04 December 2019
Temperature: 13.3°C (56°F)
Dewpoint: 11.7°C (53°F) [RH = 90%]
Pressure (altimeter): 29.86 inches Hg (1011.3 mb)
[Sea-level pressure: 1010.9 mb]
Winds: calm
Visibility: 10 or more miles (16+ km)
Ceiling: 7500 feet AGL
Clouds: few clouds at 100 feet AGL
scattered clouds at 1300 feet AGL
overcast cloud deck at 7500 feet AGL
Weather: no significant weather observed at this time

METAR text: KSJC 041821Z 27006KT 10SM FEW001 BKN010 OVC100 13/11 A2986 RMK AO2 T01330111
Conditions at: KSJC (SAN JOSE , CA, US) observed 1821 UTC 04 December 2019
Temperature: 13.3°C (56°F)
Dewpoint: 11.1°C (52°F) [RH = 87%]
Pressure (altimeter): 29.86 inches Hg (1011.3 mb)
Winds: from the W (270 degrees) at 7 MPH (6 knots; 3.1 m/s)
Visibility: 10 or more miles (16+ km)
Ceiling: 1000 feet AGL
Clouds: few clouds at 100 feet AGL
broken clouds at 1000 feet AGL
overcast cloud deck at 10000 feet AGL
Weather: no significant weather observed at this time

METAR text: KSJC 041753Z 00000KT 10SM FEW008 SCT024 BKN075 13/12 A2986 RMK AO2 RAE45 SLP110 P0000 60018 T01330117 10133 20117 53010
Conditions at: KSJC (SAN JOSE , CA, US) observed 1753 UTC 04 December 2019
Temperature: 13.3°C (56°F)
Dewpoint: 11.7°C (53°F) [RH = 90%]
Pressure (altimeter): 29.86 inches Hg (1011.3 mb)
[Sea-level pressure: 1011.0 mb]
Winds: calm
Visibility: 10 or more miles (16+ km)
Ceiling: 7500 feet AGL
Clouds: few clouds at 800 feet AGL
scattered clouds at 2400 feet AGL
broken clouds at 7500 feet AGL
Weather: no significant weather observed at this time

METAR text: KSJC 041721Z 01005KT 9SM -RA FEW001 SCT028 OVC095 13/11 A2985 RMK AO2 P0000 T01280111
Conditions at: KSJC (SAN JOSE , CA, US) observed 1721 UTC 04 December 2019
Temperature: 12.8°C (55°F)
Dewpoint: 11.1°C (52°F) [RH = 89%]
Pressure (altimeter): 29.85 inches Hg (1010.9 mb)
Winds: from the N (10 degrees) at 6 MPH (5 knots; 2.6 m/s)
Visibility: 9 miles (14 km)
Ceiling: 9500 feet AGL
Clouds: few clouds at 100 feet AGL
scattered clouds at 2800 feet AGL
overcast cloud deck at 9500 feet AGL
Weather: -RA  (light rain)

METAR text: KSJC 041653Z 31003KT 8SM -RA FEW001 BKN018 OVC080 12/12 A2984 RMK AO2 SLP104 P0002 T01220117
Conditions at: KSJC (SAN JOSE , CA, US) observed 1653 UTC 04 December 2019
Temperature: 12.2°C (54°F)
Dewpoint: 11.7°C (53°F) [RH = 97%]
Pressure (altimeter): 29.84 inches Hg (1010.6 mb)
[Sea-level pressure: 1010.4 mb]
Winds: from the NW (310 degrees) at 3 MPH (3 knots; 1.5 m/s)
Visibility: 8 miles (13 km)
Ceiling: 1800 feet AGL
Clouds: few clouds at 100 feet AGL
broken clouds at 1800 feet AGL
overcast cloud deck at 8000 feet AGL
Weather: -RA  (light rain)

METAR text: KSJC 041553Z 00000KT 3SM -RA BR FEW001 BKN009 OVC075 12/12 A2982 RMK AO2 SLP098 P0005 T01220122
Conditions at: KSJC (SAN JOSE , CA, US) observed 1553 UTC 04 December 2019
Temperature: 12.2°C (54°F)
Dewpoint: 12.2°C (54°F) [RH = 100%]
Pressure (altimeter): 29.82 inches Hg (1009.9 mb)
[Sea-level pressure: 1009.8 mb]
Winds: calm
Visibility: 3 miles ( 5 km)
Ceiling: 900 feet AGL
Clouds: few clouds at 100 feet AGL
broken clouds at 900 feet AGL
overcast cloud deck at 7500 feet AGL
Weather: -RA BR  (light rain, mist)

METAR text: KSJC 041542Z 00000KT 3SM -RA BR FEW001 BKN009 OVC075 12/12 A2983 RMK AO2 P0004 T01220122
Conditions at: KSJC (SAN JOSE , CA, US) observed 1542 UTC 04 December 2019
Temperature: 12.2°C (54°F)
Dewpoint: 12.2°C (54°F) [RH = 100%]
Pressure (altimeter): 29.83 inches Hg (1010.2 mb)
Winds: calm
Visibility: 3 miles ( 5 km)
Ceiling: 900 feet AGL
Clouds: few clouds at 100 feet AGL
broken clouds at 900 feet AGL
overcast cloud deck at 7500 feet AGL
Weather: -RA BR  (light rain, mist)

METAR text: KSJC 041453Z 27004KT 2 1/2SM RA BR FEW001 SCT013 OVC080 12/11 A2983 RMK AO2 SLP099 P0004 60011 T01170111 55006 $
Conditions at: KSJC (SAN JOSE , CA, US) observed 1453 UTC 04 December 2019
Temperature: 11.7°C (53°F)
Dewpoint: 11.1°C (52°F) [RH = 96%]
Pressure (altimeter): 29.83 inches Hg (1010.2 mb)
[Sea-level pressure: 1009.9 mb]
Winds: from the W (270 degrees) at 5 MPH (4 knots; 2.1 m/s)
Visibility: 2.50 miles (4.02 km)
Ceiling: 8000 feet AGL
Clouds: few clouds at 100 feet AGL
scattered clouds at 1300 feet AGL
overcast cloud deck at 8000 feet AGL
Weather: RA BR  (moderate rain, mist)
SOME DATA ABOVE MAY BE INACCURATE!!!
"$" is an indication the sensor requires maintenance

METAR text: KSJC 041441Z 27003KT 2 1/2SM -RA BR FEW001 BKN013 OVC080 12/11 A2983 RMK AO2 P0002 T01170111 $
Conditions at: KSJC (SAN JOSE , CA, US) observed 1441 UTC 04 December 2019
Temperature: 11.7°C (53°F)
Dewpoint: 11.1°C (52°F) [RH = 96%]
Pressure (altimeter): 29.83 inches Hg (1010.2 mb)
Winds: from the W (270 degrees) at 3 MPH (3 knots; 1.5 m/s)
Visibility: 2.50 miles (4.02 km)
Ceiling: 1300 feet AGL
Clouds: few clouds at 100 feet AGL
broken clouds at 1300 feet AGL
overcast cloud deck at 8000 feet AGL
Weather: -RA BR  (light rain, mist)
SOME DATA ABOVE MAY BE INACCURATE!!!
"$" is an indication the sensor requires maintenance

METAR text: KSJC 041431Z 26003KT 3SM -RA BR FEW001 BKN025 OVC050 12/11 A2982 RMK AO2 P0001 T01170111 $
Conditions at: KSJC (SAN JOSE , CA, US) observed 1431 UTC 04 December 2019
Temperature: 11.7°C (53°F)
Dewpoint: 11.1°C (52°F) [RH = 96%]
Pressure (altimeter): 29.82 inches Hg (1009.9 mb)
Winds: from the W (260 degrees) at 3 MPH (3 knots; 1.5 m/s)
Visibility: 3 miles ( 5 km)
Ceiling: 2500 feet AGL
Clouds: few clouds at 100 feet AGL
broken clouds at 2500 feet AGL
overcast cloud deck at 5000 feet AGL
Weather: -RA BR  (light rain, mist)
SOME DATA ABOVE MAY BE INACCURATE!!!
"$" is an indication the sensor requires maintenance

METAR text: KSJC 041353Z 00000KT 3SM -RA BR FEW001 BKN005 OVC020 12/11 A2982 RMK AO2 SLP096 P0007 T01170111 $
Conditions at: KSJC (SAN JOSE , CA, US) observed 1353 UTC 04 December 2019
Temperature: 11.7°C (53°F)
Dewpoint: 11.1°C (52°F) [RH = 96%]
Pressure (altimeter): 29.82 inches Hg (1009.9 mb)
[Sea-level pressure: 1009.6 mb]
Winds: calm
Visibility: 3 miles ( 5 km)
Ceiling: 500 feet AGL
Clouds: few clouds at 100 feet AGL
broken clouds at 500 feet AGL
overcast cloud deck at 2000 feet AGL
Weather: -RA BR  (light rain, mist)
SOME DATA ABOVE MAY BE INACCURATE!!!
"$" is an indication the sensor requires maintenance

METAR text: KSJC 041330Z 00000KT 2 1/2SM RA BR FEW001 BKN020 OVC030 12/11 A2982 RMK AO2 P0005 T01170106 $
Conditions at: KSJC (SAN JOSE , CA, US) observed 1330 UTC 04 December 2019
Temperature: 11.7°C (53°F)
Dewpoint: 10.6°C (51°F) [RH = 93%]
Pressure (altimeter): 29.82 inches Hg (1009.9 mb)
Winds: calm
Visibility: 2.50 miles (4.02 km)
Ceiling: 2000 feet AGL
Clouds: few clouds at 100 feet AGL
broken clouds at 2000 feet AGL
overcast cloud deck at 3000 feet AGL
Weather: RA BR  (moderate rain, mist)
SOME DATA ABOVE MAY BE INACCURATE!!!
"$" is an indication the sensor requires maintenance

METAR text: KSJC 041320Z AUTO 00000KT 4SM RA BR SCT012 BKN031 OVC070 12/11 A2982 RMK AO2 P0003 T01170111 $
Conditions at: KSJC (SAN JOSE , CA, US) observed 1320 UTC 04 December 2019
Temperature: 11.7°C (53°F)
Dewpoint: 11.1°C (52°F) [RH = 96%]
Pressure (altimeter): 29.82 inches Hg (1009.9 mb)
Winds: calm
Visibility: 4 miles ( 6 km)
Ceiling: 3100 feet AGL
Clouds: scattered clouds at 1200 feet AGL
broken clouds at 3100 feet AGL
overcast cloud deck at 7000 feet AGL
Weather: RA BR  (moderate rain, mist)
SOME DATA ABOVE MAY BE INACCURATE!!!
"$" is an indication the sensor requires maintenance

Forecast for: KSJC (SAN JOSE , CA, US)
Text: KSJC 052328Z 0600/0624 21008KT P6SM FEW010 BKN040 OVC200
Forecast period: 0000 to 0500 UTC 06 December 2019
Forecast type: FROM: standard forecast or significant change
Winds: from the SSW (210 degrees) at 9 MPH (8 knots; 4.1 m/s)
Visibility: 6 or more miles 10+ km)
Ceiling: 4000 feet AGL
Clouds: few clouds at 1000 feet AGL
broken clouds at 4000 feet AGL
overcast cloud deck at 20000 feet AGL
Weather: no significant weather forecast for this period
Text: FM060500 VRB05KT P6SM FEW008 BKN035 OVC180
Forecast period: 0500 to 1000 UTC 06 December 2019
Forecast type: FROM: standard forecast or significant change
Winds: variable direction winds at 6 MPH (5 knots; 2.6 m/s)
Visibility: 6 or more miles 10+ km)
Ceiling: 3500 feet AGL
Clouds: few clouds at 800 feet AGL
broken clouds at 3500 feet AGL
overcast cloud deck at 18000 feet AGL
Weather: no significant weather forecast for this period
Text: FM061000 14013G22KT P6SM FEW007 BKN030 OVC150
Forecast period: 1000 to 1800 UTC 06 December 2019
Forecast type: FROM: standard forecast or significant change
Winds: from the SE (140 degrees) at 15 MPH (13 knots; 6.7 m/s)
gusting to 25 MPH (22 knots; 11.3 m/s)
Visibility: 6 or more miles 10+ km)
Ceiling: 3000 feet AGL
Clouds: few clouds at 700 feet AGL
broken clouds at 3000 feet AGL
overcast cloud deck at 15000 feet AGL
Weather: no significant weather forecast for this period
Text: FM061800 15017G28KT P6SM FEW008 BKN035 OVC150
Forecast period: 1800 to 2100 UTC 06 December 2019
Forecast type: FROM: standard forecast or significant change
Winds: from the SSE (150 degrees) at 20 MPH (17 knots; 8.7 m/s)
gusting to 32 MPH (28 knots; 14.4 m/s)
Visibility: 6 or more miles 10+ km)
Ceiling: 3500 feet AGL
Clouds: few clouds at 800 feet AGL
broken clouds at 3500 feet AGL
overcast cloud deck at 15000 feet AGL
Weather: no significant weather forecast for this period
Text: FM062100 16020G32KT P6SM VCSH FEW007 BKN040 OVC100
Forecast period: 2100 UTC 06 December 2019 to 0000 UTC 07 December 2019
Forecast type: FROM: standard forecast or significant change
Winds: from the SSE (160 degrees) at 23 MPH (20 knots; 10.3 m/s)
gusting to 37 MPH (32 knots; 16.5 m/s)
Visibility: 6 or more miles 10+ km)
Ceiling: 4000 feet AGL
Clouds: few clouds at 700 feet AGL
broken clouds at 4000 feet AGL
overcast cloud deck at 10000 feet AGL
Weather: VCSH  (showers in vicinity)